Time;durP1;ratioP1;P1;durP2;ratioP2;P2;SDS_P1;SDS_P2;PMS_P1;PMS_P2;Temp;Humidity;BMP_temperature;BMP_pressure;BME280_temperature;BME280_humidity;BME280_pressure;Samples;Min_cycle;Max_cycle;Signal;HPM_P1;HPM_P2
2023/08/16 00:03:15;;;;;;;;;2.00;2.00;;;;;22.69;65.61;101461.56;6187529;22;45541;-70
2023/08/16 00:06:23;;;;;;;;;;;;;;;;;;;;;
2023/08/16 00:09:24;;;;;;;;;;;;;;;;;;;;;
2023/08/16 00:12:27;;;;;;;;;3.00;3.00;;;;;22.72;65.84;101448.59;6301198;22;75522;-70
2023/08/16 00:15:56;;;;;;;;;;;;;;;;;;;;;
2023/08/16 00:18:46;;;;;;;;;;;;;;;;;;;;;
2023/08/16 00:22:14;;;;;;;;;;;;;;;;;;;;;
2023/08/16 00:25:33;;;;;;;;;;;;;;;;;;;;;
2023/08/16 00:28:55;;;;;;;;;;;;;;;;;;;;;
2023/08/16 00:32:13;;;;;;;;;;;;;;;;;;;;;
2023/08/16 00:34:58;;;;;;;;;;;;;;;;;;;;;
2023/08/16 00:38:12;;;;;;;;;4.50;4.50;;;;;22.75;65.58;101463.81;6339108;22;75880;-70
2023/08/16 00:57:36;;;;;;;;;5.75;2.00;;;;;22.51;66.09;101421.06;6316266;22;45579;-70
2023/08/16 01:03:46;;;;;;;;;3.00;3.00;;;;;22.45;65.95;101429.66;6279428;22;45868;-70
2023/08/16 01:06:53;;;;;;;;;;;;;;;;;;;;;
2023/08/16 01:09:44;;;;;;;;;4.00;1.75;;;;;22.37;66.42;101426.66;6338654;22;69247;-69
2023/08/16 01:12:55;;;;;;;;;3.50;3.00;;;;;22.20;65.94;101404.22;6328607;22;45398;-69
2023/08/16 01:18:40;;;;;;;;;2.00;2.00;;;;;22.30;66.41;101415.34;6293755;22;45346;-70
2023/08/16 01:22:04;;;;;;;;;;;;;;;;;;;;;
2023/08/16 01:25:07;;;;;;;;;;;;;;;;;;;;;
2023/08/16 01:37:47;;;;;;;;;2.00;2.00;;;;;22.21;66.33;101433.13;6322169;22;45983;-69
2023/08/16 01:44:01;;;;;;;;;2.00;2.00;;;;;22.09;66.08;101434.00;6333096;22;45395;-69
2023/08/16 01:47:17;;;;;;;;;;;;;;;;;;;;;
2023/08/16 01:53:41;;;;;;;;;1.75;1.75;;;;;22.07;66.43;101432.34;6201199;22;46385;-70
2023/08/16 01:59:37;;;;;;;;;2.00;1.50;;;;;22.19;65.99;101443.25;6195336;22;45794;-70
2023/08/16 02:02:48;;;;;;;;;3.50;3.00;;;;;22.17;66.23;101433.47;6212317;22;46208;-70
2023/08/16 02:06:07;;;;;;;;;;;;;;;;;;;;;
2023/08/16 02:09:26;;;;;;;;;;;;;;;;;;;;;
2023/08/16 02:15:35;;;;;;;;;;;;;;;;;;;;;
2023/08/16 02:22:25;;;;;;;;;;;;;;;;;;;;;
2023/08/16 02:25:41;;;;;;;;;;;;;;;;;;;;;
2023/08/16 02:28:15;;;;;;;;;3.00;2.00;;;;;22.20;66.46;101438.69;6329053;22;71893;-69
2023/08/16 02:31:16;;;;;;;;;;;;;;;;;;;;;
2023/08/16 02:33:57;;;;;;;;;;;;;;;;;;;;;
2023/08/16 02:36:31;;;;;;;;;2.25;1.25;;;;;22.13;66.03;101427.34;6338791;22;67459;-70
2023/08/16 02:42:32;;;;;;;;;;;;;;;;;;;;;
2023/08/16 02:45:27;;;;;;;;;;;;;;;;;;;;;
2023/08/16 02:50:57;;;;;;;;;1.00;1.00;;;;;21.96;65.70;101403.22;6316876;22;45317;-70
2023/08/16 02:54:07;;;;;;;;;;;;;;;;;;;;;
2023/08/16 02:57:07;;;;;;;;;1.25;1.00;;;;;22.18;65.51;101433.34;6241489;22;72749;-70
2023/08/16 02:59:59;;;;;;;;;;;;;;;;;;;;;
2023/08/16 03:03:21;;;;;;;;;;;;;;;;;;;;;
2023/08/16 03:10:14;;;;;;;;;;;;;;;;;;;;;
2023/08/16 03:16:56;;;;;;;;;;;;;;;;;;;;;
2023/08/16 03:29:23;;;;;;;;;2.00;2.00;;;;;21.92;64.59;101421.59;6315521;22;45903;-70
2023/08/16 03:35:42;;;;;;;;;;;;;;;;;;;;;
2023/08/16 03:38:56;;;;;;;;;;;;;;;;;;;;;
2023/08/16 03:41:37;;;;;;;;;2.00;2.00;;;;;22.01;64.99;101445.41;6339418;22;71852;-70
2023/08/16 03:44:44;;;;;;;;;;;;;;;;;;;;;
2023/08/16 03:47:51;;;;;;;;;3.75;3.75;;;;;21.95;64.44;101425.94;6339291;22;73446;-69
2023/08/16 03:53:41;;;;;;;;;;;;;;;;;;;;;
2023/08/16 04:02:12;;;;;;;;;1.25;1.00;;;;;21.71;64.24;101396.78;6339738;22;45230;-70
2023/08/16 04:04:45;;;;;;;;;5.00;3.00;;;;;21.71;65.19;101394.06;6340745;22;45407;-70
2023/08/16 04:07:36;;;;;;;;;3.00;3.00;;;;;21.64;64.63;101384.59;6340319;22;46822;-69
2023/08/16 04:10:14;;;;;;;;;;;;;;;;;;;;;
2023/08/16 04:12:50;;;;;;;;;;;;;;;;;;;;;
2023/08/16 04:15:31;;;;;;;;;;;;;;;;;;;;;
2023/08/16 04:18:05;;;;;;;;;2.00;2.00;;;;;21.82;64.91;101409.63;6307722;22;74261;-69
2023/08/16 04:20:38;;;;;;;;;2.75;2.00;;;;;21.68;64.44;101387.97;6309251;22;45362;-69
2023/08/16 04:23:29;;;;;;;;;3.00;2.00;;;;;21.74;64.97;101384.84;6308743;22;45358;-70
2023/08/16 04:26:08;;;;;;;;;;;;;;;;;;;;;
2023/08/16 04:28:56;;;;;;;;;3.00;1.00;;;;;21.63;64.77;101377.41;6307958;22;75417;-70
2023/08/16 04:32:08;;;;;;;;;2.00;2.00;;;;;21.77;64.72;101411.78;6308707;22;45530;-70
2023/08/16 04:37:58;;;;;;;;;3.00;3.00;;;;;21.74;64.91;101406.56;6297273;22;45584;-70
2023/08/16 04:41:01;;;;;;;;;;;;;;;;;;;;;
2023/08/16 04:43:48;;;;;;;;;3.00;2.00;;;;;21.64;64.65;101392.75;6297608;22;72607;-70
2023/08/16 04:46:24;;;;;;;;;2.00;2.00;;;;;21.45;64.79;101366.81;6308918;22;45315;-69
2023/08/16 04:49:07;;;;;;;;;2.00;2.00;;;;;21.63;65.10;101401.84;6309000;22;45385;-69
2023/08/16 04:51:36;;;;;;;;;2.50;2.00;;;;;21.68;64.85;101406.97;6309060;22;45447;-70
2023/08/16 04:54:07;;;;;;;;;2.75;2.25;;;;;21.65;65.23;101408.94;6281040;22;45407;-69
2023/08/16 04:56:37;;;;;;;;;4.00;3.00;;;;;21.56;65.25;101381.53;6280953;22;45286;-69
2023/08/16 04:59:10;;;;;;;;;1.75;1.75;;;;;21.68;65.81;101405.13;6280579;22;45418;-69
2023/08/16 05:01:47;;;;;;;;;2.00;2.00;;;;;21.52;65.43;101379.97;6308559;22;45656;-70
2023/08/16 05:04:25;;;;;;;;;3.00;3.00;;;;;21.57;65.47;101391.44;6280726;22;45522;-70
2023/08/16 05:07:16;;;;;;;;;2.00;2.00;;;;;21.61;65.37;101392.94;6306912;22;45374;-70
2023/08/16 05:10:00;;;;;;;;;;;;;;;;;;;;;
2023/08/16 05:12:38;;;;;;;;;6.25;3.25;;;;;21.73;65.23;101430.13;6307303;22;75398;-69
2023/08/16 05:15:18;;;;;;;;;2.50;2.50;;;;;21.52;65.08;101399.88;6309027;22;45233;-69
2023/08/16 05:18:14;;;;;;;;;3.00;2.00;;;;;21.47;65.63;101402.06;6337356;22;45334;-69
2023/08/16 05:20:58;;;;;;;;;;;;;;;;;;;;;
2023/08/16 05:23:49;;;;;;;;;;;;;;;;;;;;;
2023/08/16 05:26:46;;;;;;;;;2.00;2.00;;;;;21.63;66.43;101435.34;6338745;22;72102;-70
2023/08/16 05:29:29;;;;;;;;;2.00;2.00;;;;;21.59;65.74;101424.78;6331788;22;45192;-70
2023/08/16 05:32:17;;;;;;;;;;;;;;;;;;;;;
2023/08/16 05:38:21;;;;;;;;;;;;;;;;;;;;;
2023/08/16 05:41:36;;;;;;;;;2.00;2.00;;;;;21.62;66.49;101441.75;6339282;22;67754;-69
2023/08/16 05:44:44;;;;;;;;;4.00;1.50;;;;;21.53;66.19;101427.91;6340463;22;45560;-69
2023/08/16 05:47:19;;;;;;;;;2.25;2.00;;;;;21.40;66.30;101406.09;6337558;22;45571;-70
2023/08/16 05:49:58;;;;;;;;;2.75;2.75;;;;;21.43;66.15;101406.78;6340171;22;45422;-70
2023/08/16 05:52:46;;;;;;;;;;;;;;;;;;;;;
2023/08/16 05:56:24;;;;;;;;;5.00;3.00;;;;;21.54;66.46;101426.94;6338936;22;72048;-69
2023/08/16 06:02:17;;;;;;;;;2.00;2.00;;;;;21.36;65.99;101389.16;6316923;22;45869;-70
2023/08/16 06:04:48;;;;;;;;;;;;;;;;;;;;;
2023/08/16 06:08:09;;;;;;;;;;;;;;;;;;;;;
2023/08/16 06:13:53;;;;;;;;;;;;;;;;;;;;;
2023/08/16 06:16:48;;;;;;;;;2.00;2.00;;;;;21.44;66.28;101422.09;6337700;22;68520;-69
2023/08/16 06:19:57;;;;;;;;;;;;;;;;;;;;;
2023/08/16 06:23:16;;;;;;;;;3.00;3.00;;;;;21.32;66.54;101393.06;6338456;22;75149;-69
2023/08/16 06:25:55;;;;;;;;;3.00;2.00;;;;;21.45;66.24;101406.66;6322270;22;45571;-70
2023/08/16 06:28:56;;;;;;;;;;;;;;;;;;;;;
2023/08/16 06:31:55;;;;;;;;;5.00;3.50;;;;;21.53;66.14;101433.34;6338200;22;71804;-70
2023/08/16 06:35:00;;;;;;;;;3.00;3.00;;;;;21.38;66.65;101425.22;6302842;22;47654;-70
2023/08/16 06:38:11;;;;;;;;;;;;;;;;;;;;;
2023/08/16 06:41:09;;;;;;;;;3.00;2.50;;;;;21.68;66.64;101448.59;6332825;22;68741;-70
2023/08/16 06:43:53;;;;;;;;;3.50;3.50;;;;;21.69;66.41;101454.94;6339575;22;45246;-69
2023/08/16 06:47:05;;;;;;;;;4.00;3.50;;;;;21.73;66.53;101448.28;6339050;22;46322;-69
2023/08/16 06:50:19;;;;;;;;;;;;;;;;;;;;;
2023/08/16 06:53:44;;;;;;;;;;;;;;;;;;;;;
2023/08/16 06:56:10;;;;;;;;;6.75;4.25;;;;;21.56;66.67;101428.56;6332020;22;72849;-66
2023/08/16 06:58:43;;;;;;;;;5.00;5.00;;;;;21.62;67.04;101432.75;6311374;22;48030;-66
2023/08/16 07:01:11;;;;;;;;;5.00;5.00;;;;;21.83;67.05;101466.59;6339100;22;45235;-71
2023/08/16 07:53:17;;;;;;;;;5.25;2.00;;;;;21.98;67.22;101447.47;6309560;22;47007;-70
2023/08/16 07:55:56;;;;;;;;;;;;;;;;;;;;;
2023/08/16 08:02:05;;;;;;;;;5.75;5.25;;;;;21.99;67.86;101422.03;6158513;22;45458;-66
2023/08/16 08:04:31;;;;;;;;;5.50;4.50;;;;;22.11;68.58;101442.91;6225905;22;45356;-66
2023/08/16 08:08:22;;;;;;;;;5.25;5.00;;;;;22.25;68.03;101441.94;6308706;22;46571;-69
2023/08/16 08:11:14;;;;;;;;;6.25;4.25;;;;;22.16;68.01;101426.28;6206299;22;45631;-71
2023/08/16 08:21:49;;;;;;;;;;;;;;;;;;;;;
2023/08/16 08:42:38;;;;;;;;;6.00;5.00;;;;;22.82;67.17;101473.31;5978018;23;45500;-70
2023/08/16 08:46:22;;;;;;;;;;;;;;;;;;;;;
2023/08/16 10:01:18;;;;;;;;;5.75;4.50;;;;;23.86;66.64;101387.47;6319330;22;45418;-65
2023/08/16 10:03:51;;;;;;;;;5.75;3.75;;;;;23.79;66.17;101361.63;6309412;22;45229;-65
2023/08/16 10:06:30;;;;;;;;;4.75;4.75;;;;;23.93;65.66;101374.22;6308482;22;45250;-66
2023/08/16 10:08:56;;;;;;;;;4.50;3.00;;;;;24.15;65.52;101397.94;6306445;22;47089;-66
2023/08/16 18:32:51;;;;;;;;;;;;;;;;;;;;;
2023/08/16 18:35:32;;;;;;;;;7.50;6.75;;;;;26.44;55.55;101240.94;6305760;22;68912;-66
2023/08/16 18:41:33;;;;;;;;;;;;;;;;;;;;;
2023/08/16 18:44:40;;;;;;;;;;;;;;;;;;;;;
2023/08/16 18:47:11;;;;;;;;;6.00;6.00;;;;;26.40;56.16;101237.63;6304615;22;68767;-67
2023/08/16 18:49:47;;;;;;;;;4.75;4.75;;;;;26.50;55.83;101259.53;6307779;22;45392;-67
2023/08/16 18:52:28;;;;;;;;;;;;;;;;;;;;;
2023/08/16 19:01:59;;;;;;;;;8.25;7.25;;;;;26.31;55.81;101238.47;6287309;22;45871;-65
2023/08/16 19:56:15;;;;;;;;;8.00;6.75;;;;;25.84;57.55;101274.56;6318698;22;46225;-66
2023/08/16 20:02:20;;;;;;;;;7.00;6.00;;;;;26.03;58.10;101323.03;6250906;22;45406;-66
2023/08/16 20:09:16;;;;;;;;;;;;;;;;;;;;;
2023/08/16 20:22:14;;;;;;;;;8.00;8.00;;;;;25.73;58.84;101285.56;6331029;22;45396;-67
2023/08/16 20:27:55;;;;;;;;;9.75;9.50;;;;;25.85;58.51;101300.03;6308248;22;45541;-66
2023/08/16 20:30:25;;;;;;;;;11.25;10.00;;;;;25.91;58.31;101304.97;6306160;22;47576;-68
2023/08/16 20:32:52;;;;;;;;;9.00;9.00;;;;;25.80;58.72;101299.56;6306259;22;45361;-64
2023/08/16 20:35:20;;;;;;;;;8.00;8.00;;;;;25.75;58.67;101288.19;6306707;22;45455;-66
2023/08/16 20:37:45;;;;;;;;;9.00;9.00;;;;;25.70;58.37;101288.56;6325920;22;45618;-66
2023/08/16 20:40:11;;;;;;;;;9.00;9.00;;;;;25.67;58.50;101294.31;6304068;22;45327;-70
2023/08/16 20:45:04;;;;;;;;;6.00;5.25;;;;;25.82;58.35;101317.56;6239683;22;67613;-74
2023/08/16 20:47:30;;;;;;;;;8.00;8.00;;;;;25.81;59.05;101321.31;6299200;22;45555;-76
2023/08/16 20:49:58;;;;;;;;;10.00;10.00;;;;;25.72;58.76;101302.97;6303419;22;45448;-71
2023/08/16 20:52:24;;;;;;;;;9.00;6.50;;;;;25.66;58.89;101296.19;6274240;22;45739;-69
2023/08/16 20:54:55;;;;;;;;;9.75;9.00;;;;;25.65;59.11;101288.09;6303583;22;45621;-70
2023/08/16 20:57:23;;;;;;;;;8.25;8.25;;;;;25.59;59.22;101285.91;6303343;22;45581;-70
2023/08/16 20:59:49;;;;;;;;;8.00;7.75;;;;;25.60;58.81;101291.25;6302600;22;45484;-68
2023/08/16 21:02:16;;;;;;;;;9.75;9.00;;;;;25.47;59.18;101277.78;6303700;22;45584;-68
2023/08/16 21:04:42;;;;;;;;;7.00;7.00;;;;;25.47;59.02;101282.38;6304003;22;45511;-67
2023/08/16 21:07:10;;;;;;;;;12.00;11.50;;;;;25.51;58.63;101292.91;6305143;22;45642;-69
2023/08/16 21:09:35;;;;;;;;;9.75;9.75;;;;;25.48;59.16;101290.44;6308595;22;45602;-70
2023/08/16 21:12:01;;;;;;;;;11.00;11.00;;;;;25.44;59.36;101293.56;6308727;22;45421;-70
2023/08/16 21:14:27;;;;;;;;;13.50;10.50;;;;;25.47;58.77;101296.91;6279971;22;45283;-70
2023/08/16 21:16:53;;;;;;;;;9.25;9.25;;;;;25.38;59.27;101283.19;6308520;22;45251;-70
2023/08/16 21:19:18;;;;;;;;;12.75;11.25;;;;;25.49;59.73;101300.41;6279534;22;46370;-70
2023/08/16 21:21:44;;;;;;;;;10.75;9.00;;;;;25.43;59.49;101297.31;6280577;22;45615;-70
2023/08/16 21:24:10;;;;;;;;;10.50;10.50;;;;;25.30;59.39;101283.84;6280707;22;45204;-70
2023/08/16 21:26:39;;;;;;;;;11.75;11.00;;;;;25.25;59.37;101281.47;6307742;22;45475;-70
2023/08/16 21:29:05;;;;;;;;;9.25;8.75;;;;;25.35;59.70;101297.13;6280682;22;47462;-70
2023/08/16 21:31:35;;;;;;;;;10.50;10.50;;;;;25.47;59.79;101309.72;6280005;22;45560;-70
2023/08/16 21:34:00;;;;;;;;;12.25;10.50;;;;;25.26;59.73;101271.41;6309043;22;45334;-70
2023/08/16 21:36:26;;;;;;;;;11.75;11.75;;;;;25.21;59.29;101280.03;6280332;22;45262;-70
2023/08/16 21:38:51;;;;;;;;;11.25;11.25;;;;;25.23;59.83;101285.34;6309063;22;45321;-70
2023/08/16 21:41:16;;;;;;;;;12.25;11.25;;;;;25.26;59.76;101296.91;6308644;22;45417;-70
2023/08/16 21:43:42;;;;;;;;;10.50;10.50;;;;;25.28;59.55;101299.50;6309188;22;45352;-70
2023/08/16 21:46:08;;;;;;;;;10.25;9.75;;;;;25.15;60.05;101286.84;6278930;22;45451;-70
2023/08/16 21:48:33;;;;;;;;;11.00;11.00;;;;;25.19;59.18;101289.31;6280541;22;48066;-70
2023/08/16 21:50:58;;;;;;;;;12.75;11.00;;;;;25.17;59.51;101291.34;6280370;22;45966;-70
2023/08/16 21:53:24;;;;;;;;;10.75;10.75;;;;;25.32;58.94;101315.50;6280102;22;45393;-70
2023/08/16 21:55:52;;;;;;;;;11.00;10.25;;;;;25.18;59.22;101296.66;6308200;22;45443;-70
2023/08/16 21:58:18;;;;;;;;;10.75;10.75;;;;;25.19;59.01;101298.38;6280301;22;47569;-71
2023/08/16 22:00:44;;;;;;;;;9.25;8.75;;;;;25.14;58.75;101285.16;6308246;22;45234;-70
2023/08/16 22:03:09;;;;;;;;;11.75;10.50;;;;;25.19;58.90;101300.25;6308866;22;45241;-70
2023/08/16 22:05:36;;;;;;;;;13.00;12.00;;;;;25.11;59.48;101295.47;6308281;22;45319;-71
2023/08/16 22:08:02;;;;;;;;;12.50;12.50;;;;;25.04;58.87;101292.41;6307813;22;46290;-70
2023/08/16 22:10:27;;;;;;;;;10.00;10.00;;;;;25.03;59.80;101282.44;6308693;22;45367;-70
2023/08/16 22:12:53;;;;;;;;;12.00;12.00;;;;;24.88;59.39;101270.09;6280363;22;45333;-70
2023/08/16 22:15:19;;;;;;;;;13.00;13.00;;;;;24.95;59.50;101284.97;6308273;22;45266;-70
2023/08/16 22:17:44;;;;;;;;;12.50;11.75;;;;;24.91;59.51;101292.56;6308391;22;45419;-71
2023/08/16 22:20:11;;;;;;;;;13.25;13.25;;;;;24.89;59.83;101286.38;6308509;22;45321;-70
2023/08/16 22:22:36;;;;;;;;;16.00;13.50;;;;;24.85;59.87;101275.81;6280568;22;45191;-70
2023/08/16 22:25:03;;;;;;;;;12.00;12.00;;;;;24.85;60.42;101275.81;6279208;22;45289;-70
2023/08/16 22:27:28;;;;;;;;;14.00;14.00;;;;;24.89;60.05;101294.56;6308201;22;46241;-70
2023/08/16 22:29:54;;;;;;;;;10.50;10.50;;;;;24.83;60.62;101289.59;6308170;22;45235;-70
2023/08/16 22:32:21;;;;;;;;;11.00;11.00;;;;;24.64;60.37;101257.53;6308259;22;45262;-70
2023/08/16 22:34:47;;;;;;;;;14.00;10.50;;;;;24.67;60.64;101270.91;6280124;22;45572;-70
2023/08/16 22:37:12;;;;;;;;;9.75;9.75;;;;;24.67;60.99;101270.91;6308559;22;45342;-70
2023/08/16 22:39:37;;;;;;;;;12.75;12.75;;;;;24.71;61.08;101280.59;6308143;22;45310;-70
2023/08/16 22:42:03;;;;;;;;;13.50;12.00;;;;;24.69;60.86;101278.97;6308132;22;45357;-70
2023/08/16 22:44:29;;;;;;;;;11.50;11.50;;;;;24.62;61.79;101273.16;6307826;22;45415;-70
2023/08/16 22:46:54;;;;;;;;;12.00;12.00;;;;;24.58;61.44;101267.09;6279577;22;48296;-70
2023/08/16 22:49:20;;;;;;;;;16.25;15.25;;;;;24.65;61.38;101281.09;6308000;22;45428;-70
2023/08/16 22:51:45;;;;;;;;;13.75;13.75;;;;;24.69;61.47;101298.06;6308385;22;45328;-70
2023/08/16 22:54:10;;;;;;;;;10.25;9.25;;;;;24.63;61.80;101288.53;6307884;22;45454;-70
2023/08/16 22:56:36;;;;;;;;;9.75;9.75;;;;;24.56;61.91;101276.41;6280134;22;47088;-70
2023/08/16 22:59:01;;;;;;;;;12.75;11.00;;;;;24.47;62.42;101278.00;6307621;22;45329;-70
2023/08/16 23:01:26;;;;;;;;;12.50;12.50;;;;;24.70;62.10;101314.31;6308135;22;45241;-71
2023/08/16 23:03:52;;;;;;;;;11.25;11.25;;;;;24.66;62.58;101312.84;6280108;22;45183;-70
2023/08/16 23:06:17;;;;;;;;;12.25;12.25;;;;;24.50;62.30;101287.81;6307655;22;46260;-70
2023/08/16 23:08:43;;;;;;;;;11.25;11.25;;;;;24.66;62.91;101315.59;6278569;22;45390;-70
2023/08/16 23:11:09;;;;;;;;;12.00;12.00;;;;;24.52;62.71;101299.44;6307905;22;45285;-70
2023/08/16 23:13:34;;;;;;;;;12.25;12.25;;;;;24.50;62.56;101291.38;6308168;22;45188;-70
2023/08/16 23:16:00;;;;;;;;;11.00;11.00;;;;;24.40;62.80;101282.22;6307447;22;45291;-70
2023/08/16 23:18:25;;;;;;;;;12.00;12.00;;;;;24.47;63.21;101298.97;6308058;22;45249;-70
2023/08/16 23:20:51;;;;;;;;;14.75;11.75;;;;;24.41;62.98;101298.47;6307863;22;45275;-70
2023/08/16 23:23:16;;;;;;;;;11.75;9.50;;;;;24.37;62.96;101301.56;6308061;22;45440;-70
2023/08/16 23:25:42;;;;;;;;;9.50;9.50;;;;;24.30;63.44;101287.56;6307263;22;45416;-70
2023/08/16 23:28:07;;;;;;;;;12.25;12.00;;;;;24.26;63.52;101288.81;6279741;22;45540;-70
2023/08/16 23:30:33;;;;;;;;;13.75;13.00;;;;;24.21;64.58;101272.84;6307229;22;45477;-70
2023/08/16 23:32:58;;;;;;;;;12.50;12.25;;;;;24.29;63.72;101295.88;6307624;22;45330;-70
2023/08/16 23:35:24;;;;;;;;;14.00;14.00;;;;;24.15;64.08;101272.47;6307679;22;45281;-70
2023/08/16 23:37:49;;;;;;;;;11.00;10.00;;;;;24.18;64.14;101283.13;6308177;22;45509;-70
2023/08/16 23:40:15;;;;;;;;;12.50;12.50;;;;;24.30;64.49;101308.53;6307518;22;45298;-70
2023/08/16 23:42:40;;;;;;;;;13.50;13.25;;;;;24.10;64.26;101280.16;6307382;22;45411;-70
2023/08/16 23:45:07;;;;;;;;;14.50;11.75;;;;;24.00;64.90;101280.03;6306414;22;45913;-70
2023/08/16 23:47:33;;;;;;;;;14.25;13.00;;;;;23.93;64.51;101279.66;6279267;22;45211;-70
2023/08/16 23:49:58;;;;;;;;;16.50;15.50;;;;;24.13;65.15;101310.78;6279661;22;45469;-70
2023/08/16 23:52:24;;;;;;;;;14.50;13.75;;;;;23.89;64.99;101274.56;6308947;22;45416;-70
2023/08/16 23:54:49;;;;;;;;;14.75;14.75;;;;;23.89;65.25;101283.63;6280377;22;47117;-70
2023/08/16 23:57:15;;;;;;;;;16.50;14.75;;;;;23.84;65.59;101274.97;6309164;22;45287;-70
2023/08/16 23:59:45;;;;;;;;;15.75;14.25;;;;;23.96;65.60;101309.41;6308896;22;45445;-70
